Portada
METAR-TAF:

METAR-TAF

Aeroports :

Curitiba, Paranà, Brasil

latitud: 25-26S, longitud: 049-16W, altitud: 924 m

Observació

L'informe es va fer fa 2 hores i 45 minuts, a les 01:00 UTC
Vent 4 kt del Nord/Nord-Est
Temperatura 15°C
Humitat 82%
Pressió 1022 hPa
Visibilitat 10 km o més
sense núvols per sota de 1500 mi sense presència de cumulonimbus.

METAR: SBBI 220100Z 03004KT CAVOK 15/12 Q1022

Hora: 00:45 (03:45 UTC)

Pronòstic

L'informe es va fer fa 12 hores i 15 minuts, a les 15:30 UTC
Pronòstic vàlid del 21 a les 18 UTC al 22 a les 06 UTC
Vent 8 kt del Nord
Visibilitat 10 km o més
sense núvols per sota de 1500 mi sense presència de cumulonimbus.
Evolucionant progressivament
l' 21 a les 20 UTC al 21 a les 22 UTC
Vent 5 kt del Est/Nord-Est
Probabilitat 30%
l' 22 a les 04 UTC al 22 a les 06 UTC
Visibilitat: 4000 m
Cel ennuvolat a una alçada de 400 ft
boirina

TAF: SBBI 211530Z 2118/2206 36008KT CAVOK TX20/2118Z TN13/2206Z BECMG 2120/2122 07005KT PROB30 2204/2206 4000 BR BKN004 RMK PFF

Observacions i pronòstics meteorològics de més de 4000 aeroports (METAR i TAF).

Les estacions disponibles són els punts grocs i vermells al mapa.

Posi el ratolí al punt desitjat per veure el nom de l'estació.

Feu clic per veure les observacions i els pronòstics meteorològics.

Per canviar el mapa: feu clic els botons verds amb una creu de color negre per apropar; al botó verd amb un guió per allunyar la imatge; o en les fletxes verdes per a mapes adjacents.


METAR-TAF: